createdAt,value
2018-04-23T00:00:05.711Z,13.06
2018-04-23T00:02:33.254Z,13.09
2018-04-23T00:05:00.818Z,12.95
2018-04-23T00:07:28.484Z,12.75
2018-04-23T00:09:56.099Z,12.61
2018-04-23T00:12:23.752Z,12.51
2018-04-23T00:14:51.313Z,12.58
2018-04-23T00:17:18.923Z,12.58
2018-04-23T00:19:46.483Z,12.57
2018-04-23T00:22:14.084Z,12.45
2018-04-23T00:24:41.642Z,12.27
2018-04-23T00:27:09.241Z,12.18
2018-04-23T00:29:36.842Z,11.98
2018-04-23T00:32:04.462Z,12.07
2018-04-23T00:34:32.084Z,12.04
2018-04-23T00:36:59.643Z,12.05
2018-04-23T00:39:27.303Z,12.01
2018-04-23T00:41:54.929Z,11.94
2018-04-23T00:44:22.607Z,11.85
2018-04-23T00:46:50.163Z,11.68
2018-04-23T00:49:17.738Z,11.75
2018-04-23T00:51:45.335Z,11.82
2018-04-23T00:54:13.055Z,11.97
2018-04-23T00:56:40.610Z,11.97
2018-04-23T00:59:08.174Z,12.01
2018-04-23T01:01:35.838Z,12.07
2018-04-23T01:04:03.400Z,12.04
2018-04-23T01:06:31.003Z,11.95
2018-04-23T01:08:58.587Z,11.84
2018-04-23T01:11:26.200Z,11.74
2018-04-23T01:13:53.755Z,11.81
2018-04-23T01:16:21.355Z,11.79
2018-04-23T01:18:48.958Z,11.78
2018-04-23T01:21:16.519Z,11.73
2018-04-23T01:26:11.012Z,11.63
2018-04-23T01:28:38.605Z,11.60
2018-04-23T01:31:06.167Z,11.58
2018-04-23T01:33:33.835Z,11.52
2018-04-23T01:36:01.383Z,11.42
2018-04-23T01:38:28.934Z,11.27
2018-04-23T01:40:56.626Z,11.20
2018-04-23T01:43:24.182Z,11.26
2018-04-23T01:45:51.739Z,11.23
2018-04-23T01:48:19.330Z,11.15
2018-04-23T01:50:46.879Z,11.11
2018-04-23T01:53:14.495Z,11.07
2018-04-23T01:55:42.056Z,11.00
2018-04-23T01:58:09.620Z,10.85
2018-04-23T02:00:37.244Z,10.76
2018-04-23T02:03:04.883Z,10.70
2018-04-23T02:05:32.463Z,10.74
2018-04-23T02:08:00.063Z,10.80
2018-04-23T02:10:27.631Z,10.83
2018-04-23T02:12:55.242Z,10.78
2018-04-23T02:15:22.856Z,10.76
2018-04-23T02:17:50.540Z,10.79
2018-04-23T02:20:18.115Z,10.69
2018-04-23T02:22:45.667Z,10.63
2018-04-23T02:25:13.370Z,10.52
2018-04-23T02:27:40.922Z,10.45
2018-04-23T02:30:08.538Z,10.45
2018-04-23T02:32:36.157Z,10.39
2018-04-23T02:35:03.769Z,10.52
2018-04-23T02:37:32.041Z,10.64
2018-04-23T02:39:59.643Z,10.74
2018-04-23T02:42:27.198Z,10.80
2018-04-23T02:44:54.799Z,10.68
2018-04-23T02:47:22.355Z,10.59
2018-04-23T02:49:49.910Z,10.58
2018-04-23T02:52:17.534Z,10.59
2018-04-23T02:54:45.090Z,10.62
2018-04-23T02:57:12.703Z,10.66
2018-04-23T02:59:40.319Z,10.70
2018-04-23T03:02:07.943Z,10.67
2018-04-23T03:04:35.503Z,10.82
2018-04-23T03:07:03.051Z,10.85
2018-04-23T03:09:30.646Z,10.96
2018-04-23T03:11:58.202Z,10.97
2018-04-23T03:14:25.828Z,10.93
2018-04-23T03:16:53.374Z,10.98
2018-04-23T03:19:20.982Z,10.98
2018-04-23T03:21:48.619Z,10.91
2018-04-23T03:24:16.179Z,10.86
2018-04-23T03:26:44.757Z,10.79
2018-04-23T03:29:12.412Z,10.91
2018-04-23T03:31:40.019Z,10.99
2018-04-23T03:34:07.634Z,10.99
2018-04-23T03:36:35.294Z,11.01
2018-04-23T03:39:02.915Z,11.19
2018-04-23T03:41:30.463Z,11.16
2018-04-23T03:43:58.063Z,11.20
2018-04-23T03:46:25.680Z,11.17
2018-04-23T03:48:53.279Z,11.16
2018-04-23T03:51:20.939Z,11.13
2018-04-23T03:53:48.558Z,11.14
2018-04-23T03:56:16.167Z,11.13
2018-04-23T03:58:43.721Z,11.15
2018-04-23T04:01:11.267Z,11.36
2018-04-23T04:03:39.003Z,11.58
2018-04-23T04:06:06.562Z,11.64
2018-04-23T04:08:34.181Z,11.64
2018-04-23T04:11:02.707Z,11.66
2018-04-23T04:13:41.948Z,11.71
2018-04-23T04:16:21.396Z,11.75
2018-04-23T04:18:49.007Z,11.85
2018-04-23T04:21:16.551Z,11.91
2018-04-23T04:23:44.160Z,12.02
2018-04-23T04:26:11.779Z,12.10
2018-04-23T04:28:39.333Z,12.12
2018-04-23T04:31:06.948Z,12.17
2018-04-23T04:33:34.575Z,12.27
2018-04-23T04:36:02.177Z,12.34
2018-04-23T04:38:29.732Z,12.38
2018-04-23T04:40:57.335Z,12.64
2018-04-23T04:43:25.015Z,12.84
2018-04-23T04:45:52.579Z,13.07
2018-04-23T04:48:20.383Z,13.25
2018-04-23T04:50:47.984Z,13.55
2018-04-23T04:53:15.587Z,13.85
2018-04-23T04:55:43.211Z,14.19
2018-04-23T04:58:11.827Z,14.47
2018-04-23T05:00:39.497Z,14.83
2018-04-23T05:03:07.049Z,15.26
2018-04-23T05:05:34.656Z,15.71
2018-04-23T05:08:02.292Z,15.82
2018-04-23T05:10:29.851Z,15.86
2018-04-23T05:12:57.445Z,15.76
2018-04-23T05:15:25.035Z,16.09
2018-04-23T05:17:52.614Z,16.24
2018-04-23T05:20:20.248Z,16.43
2018-04-23T05:22:47.862Z,16.49
2018-04-23T05:25:16.630Z,16.54
2018-04-23T05:27:44.252Z,16.37
2018-04-23T05:30:11.812Z,16.41
2018-04-23T05:32:39.363Z,16.71
2018-04-23T05:35:07.596Z,17.11
2018-04-23T05:37:35.188Z,17.57
2018-04-23T05:40:02.803Z,17.94
2018-04-23T05:42:30.711Z,18.15
2018-04-23T05:44:58.327Z,18.27
2018-04-23T05:47:25.878Z,18.39
2018-04-23T05:49:53.511Z,18.47
2018-04-23T05:52:21.124Z,18.56
2018-04-23T05:54:49.431Z,18.93
2018-04-23T05:57:17.105Z,19.41
2018-04-23T05:59:44.773Z,19.65
2018-04-23T06:02:12.348Z,19.81
2018-04-23T06:04:39.947Z,20.13
2018-04-23T06:07:07.572Z,20.20
2018-04-23T06:09:37.895Z,20.05
2018-04-23T06:12:07.444Z,19.87
2018-04-23T06:14:35.099Z,19.98
2018-04-23T06:17:02.722Z,20.05
2018-04-23T06:19:30.292Z,20.15
2018-04-23T06:21:57.915Z,20.57
2018-04-23T06:24:26.399Z,20.87
2018-04-23T06:26:54.007Z,21.08
2018-04-23T06:29:21.619Z,21.25
2018-04-23T06:31:49.229Z,21.67
2018-04-23T06:34:17.830Z,21.90
2018-04-23T06:36:45.380Z,22.04
2018-04-23T06:39:12.934Z,22.34
2018-04-23T06:41:40.591Z,22.65
2018-04-23T06:44:08.142Z,22.92
2018-04-23T06:46:35.791Z,23.03
2018-04-23T06:49:03.383Z,23.21
2018-04-23T06:51:31.000Z,23.46
2018-04-23T06:53:58.603Z,23.54
2018-04-23T06:56:26.219Z,23.27
2018-04-23T06:58:53.823Z,23.27
2018-04-23T07:01:21.427Z,23.59
2018-04-23T07:03:49.108Z,23.77
2018-04-23T07:06:16.819Z,23.73
2018-04-23T07:08:44.374Z,23.94
2018-04-23T07:11:11.987Z,24.26
2018-04-23T07:13:39.662Z,24.82
2018-04-23T07:16:07.280Z,26.27
2018-04-23T07:18:34.976Z,27.14
2018-04-23T07:21:02.654Z,27.54
2018-04-23T07:23:30.216Z,28.42
2018-04-23T07:25:57.858Z,29.25
2018-04-23T07:28:25.414Z,29.73
2018-04-23T07:30:52.983Z,29.35
2018-04-23T07:33:20.594Z,29.88
2018-04-23T07:35:48.222Z,30.83
2018-04-23T07:38:16.099Z,31.09
2018-04-23T07:40:43.703Z,31.85
2018-04-23T07:43:11.315Z,32.17
2018-04-23T07:45:38.872Z,31.80
2018-04-23T07:48:06.419Z,31.72
2018-04-23T07:50:34.075Z,32.22
2018-04-23T07:53:01.631Z,32.94
2018-04-23T07:55:29.302Z,32.74
2018-04-23T07:57:56.927Z,32.38
2018-04-23T08:00:24.550Z,32.01
2018-04-23T08:02:52.724Z,31.25
2018-04-23T08:05:20.283Z,31.92
2018-04-23T08:07:47.957Z,31.67
2018-04-23T08:10:15.568Z,32.27
2018-04-23T08:12:43.231Z,32.29
2018-04-23T08:15:10.867Z,33.09
2018-04-23T08:17:38.556Z,32.82
2018-04-23T08:20:06.237Z,32.43
2018-04-23T08:22:33.859Z,32.14
2018-04-23T08:25:01.423Z,32.64
2018-04-23T08:27:28.996Z,33.28
2018-04-23T08:29:56.628Z,33.35
2018-04-23T08:32:24.187Z,33.33
2018-04-23T08:34:51.901Z,33.60
2018-04-23T08:37:19.518Z,33.86
2018-04-23T08:39:47.158Z,34.01
2018-04-23T08:42:14.755Z,34.53
2018-04-23T08:44:42.427Z,34.65
2018-04-23T08:47:09.986Z,35.73
2018-04-23T08:49:37.615Z,35.19
2018-04-23T08:52:05.250Z,36.17
2018-04-23T08:54:32.931Z,35.47
2018-04-23T08:57:01.283Z,35.64
2018-04-23T08:59:28.950Z,35.71
2018-04-23T09:01:56.520Z,35.75
2018-04-23T09:04:24.201Z,36.02
2018-04-23T09:06:51.848Z,37.16
2018-04-23T09:09:19.421Z,36.64
2018-04-23T09:11:47.053Z,36.95
2018-04-23T09:14:14.669Z,37.82
2018-04-23T09:16:42.280Z,37.23
2018-04-23T09:19:09.892Z,36.99
2018-04-23T09:21:37.503Z,37.37
2018-04-23T09:24:05.179Z,37.15
2018-04-23T09:26:32.727Z,37.33
2018-04-23T09:29:00.308Z,37.57
2018-04-23T09:31:27.953Z,37.28
2018-04-23T09:33:55.550Z,38.42
2018-04-23T09:36:23.165Z,39.79
2018-04-23T09:38:51.614Z,39.75
2018-04-23T09:41:19.224Z,40.71
2018-04-23T09:43:46.853Z,41.96
2018-04-23T09:46:14.452Z,40.55
2018-04-23T09:48:42.003Z,40.91
2018-04-23T09:51:09.614Z,40.69
2018-04-23T09:53:37.240Z,41.06
2018-04-23T09:56:04.799Z,42.37
2018-04-23T09:58:32.400Z,42.11
2018-04-23T10:01:00.130Z,40.74
2018-04-23T10:03:27.818Z,42.71
2018-04-23T10:05:55.387Z,44.93
2018-04-23T10:08:22.952Z,44.07
2018-04-23T10:10:50.623Z,42.65
2018-04-23T10:13:18.184Z,43.82
2018-04-23T10:15:45.809Z,44.01
2018-04-23T10:18:13.364Z,42.59
2018-04-23T10:20:41.397Z,42.07
2018-04-23T10:23:09.053Z,41.68
2018-04-23T10:25:36.681Z,41.36
2018-04-23T10:28:04.329Z,41.46
2018-04-23T10:30:31.888Z,42.99
2018-04-23T10:32:59.498Z,43.32
2018-04-23T10:35:27.213Z,42.97
2018-04-23T10:37:54.850Z,42.23
2018-04-23T10:40:22.433Z,41.66
2018-04-23T10:42:50.021Z,40.80
2018-04-23T10:45:17.579Z,40.92
2018-04-23T10:47:45.206Z,41.88
2018-04-23T10:50:12.751Z,43.04
2018-04-23T10:52:41.299Z,43.94
2018-04-23T10:55:08.953Z,45.33
2018-04-23T10:57:36.507Z,43.24
2018-04-23T11:00:04.296Z,44.09
2018-04-23T11:02:31.850Z,43.95
2018-04-23T11:04:59.461Z,44.88
2018-04-23T11:07:27.094Z,43.53
2018-04-23T11:09:54.710Z,44.74
2018-04-23T11:12:22.319Z,44.50
2018-04-23T11:14:49.922Z,42.85
2018-04-23T11:17:17.475Z,42.78
2018-04-23T11:19:45.084Z,43.92
2018-04-23T11:22:12.763Z,42.60
2018-04-23T11:24:40.318Z,43.72
2018-04-23T11:27:07.970Z,42.38
2018-04-23T11:29:35.604Z,42.96
2018-04-23T11:32:03.162Z,42.88
2018-04-23T11:34:30.766Z,43.63
2018-04-23T11:36:58.401Z,44.28
2018-04-23T11:39:26.068Z,44.28
2018-04-23T11:41:53.882Z,45.04
2018-04-23T11:44:21.492Z,47.33
2018-04-23T11:46:49.100Z,46.79
2018-04-23T11:49:16.758Z,45.80
2018-04-23T11:51:44.351Z,44.60
2018-04-23T11:54:12.020Z,46.55
2018-04-23T11:56:39.603Z,46.45
2018-04-23T11:59:07.199Z,46.80
2018-04-23T12:01:35.515Z,47.63
2018-04-23T12:04:03.108Z,47.69
2018-04-23T12:06:30.721Z,44.77
2018-04-23T12:08:58.391Z,44.13
2018-04-23T12:11:25.950Z,44.02
2018-04-23T12:13:53.504Z,45.64
2018-04-23T12:16:21.109Z,44.10
2018-04-23T12:18:48.675Z,44.27
2018-04-23T12:21:16.222Z,44.54
2018-04-23T12:23:43.906Z,46.13
2018-04-23T12:26:11.518Z,46.19
2018-04-23T12:28:39.928Z,45.74
2018-04-23T12:31:07.543Z,47.58
2018-04-23T12:33:35.168Z,46.17
2018-04-23T12:36:02.724Z,46.06
2018-04-23T12:38:30.322Z,44.59
2018-04-23T12:40:57.935Z,45.90
2018-04-23T12:43:25.599Z,46.56
2018-04-23T12:45:53.279Z,44.89
2018-04-23T12:48:20.812Z,45.96
2018-04-23T12:50:48.438Z,47.04
2018-04-23T12:53:15.985Z,47.78
2018-04-23T12:55:43.531Z,48.04
2018-04-23T12:58:11.206Z,48.60
2018-04-23T13:00:38.849Z,50.06
2018-04-23T13:03:07.046Z,48.38
2018-04-23T13:05:35.574Z,48.16
2018-04-23T13:08:03.164Z,47.89
2018-04-23T13:10:30.709Z,46.43
2018-04-23T13:12:58.312Z,46.11
2018-04-23T13:15:25.884Z,46.18
2018-04-23T13:17:53.486Z,45.78
2018-04-23T13:20:21.043Z,45.83
2018-04-23T13:22:48.611Z,47.61
2018-04-23T13:25:16.199Z,48.20
2018-04-23T13:27:44.588Z,47.44
2018-04-23T13:30:12.174Z,49.10
2018-04-23T13:32:40.553Z,48.73
2018-04-23T13:35:08.216Z,49.59
2018-04-23T13:37:36.545Z,49.81
2018-04-23T13:40:04.149Z,49.61
2018-04-23T13:42:31.845Z,46.92
2018-04-23T13:44:59.499Z,45.69
2018-04-23T13:47:27.047Z,44.81
2018-04-23T13:49:54.593Z,46.26
2018-04-23T13:52:22.210Z,45.65
2018-04-23T13:54:49.756Z,42.94
2018-04-23T13:57:17.299Z,41.58
2018-04-23T13:59:44.936Z,40.99
2018-04-23T14:02:12.491Z,39.93
2018-04-23T14:04:40.104Z,41.42
2018-04-23T14:07:07.803Z,42.48
2018-04-23T14:09:35.413Z,40.49
2018-04-23T14:12:02.965Z,40.62
2018-04-23T14:14:30.574Z,40.50
2018-04-23T14:16:59.104Z,40.37
2018-04-23T14:19:27.408Z,40.19
2018-04-23T14:21:54.965Z,41.14
2018-04-23T14:24:23.163Z,40.20
2018-04-23T14:26:50.759Z,41.27
2018-04-23T14:29:18.556Z,39.99
2018-04-23T14:31:46.238Z,39.49
2018-04-23T14:34:13.808Z,39.16
2018-04-23T14:36:41.929Z,39.56
2018-04-23T14:39:09.543Z,39.91
2018-04-23T14:41:37.796Z,39.50
2018-04-23T14:44:05.431Z,39.19
2018-04-23T14:46:33.096Z,38.83
2018-04-23T14:49:00.708Z,38.76
2018-04-23T14:51:28.380Z,39.15
2018-04-23T14:53:57.138Z,39.12
2018-04-23T14:56:25.240Z,38.24
2018-04-23T14:58:52.833Z,38.91
2018-04-23T15:01:20.388Z,37.71
2018-04-23T15:03:47.990Z,37.58
2018-04-23T15:06:15.763Z,38.02
2018-04-23T15:08:43.322Z,37.66
2018-04-23T15:11:10.928Z,37.54
2018-04-23T15:13:38.506Z,36.90
2018-04-23T15:16:06.163Z,36.39
2018-04-23T15:18:33.718Z,36.22
2018-04-23T15:21:01.308Z,36.14
2018-04-23T15:23:28.931Z,36.35
2018-04-23T15:25:57.159Z,36.25
2018-04-23T15:28:24.917Z,36.04
2018-04-23T15:30:52.571Z,35.55
2018-04-23T15:33:20.119Z,36.00
2018-04-23T15:35:48.260Z,35.75
2018-04-23T15:38:15.859Z,35.13
2018-04-23T15:40:44.139Z,34.72
2018-04-23T15:43:11.704Z,34.66
2018-04-23T15:45:41.152Z,35.07
2018-04-23T15:48:08.703Z,34.87
2018-04-23T15:50:37.003Z,34.70
2018-04-23T15:53:04.552Z,34.08
2018-04-23T15:55:33.059Z,34.03
2018-04-23T15:58:00.727Z,33.41
2018-04-23T16:00:28.274Z,33.30
2018-04-23T16:02:57.775Z,31.78
2018-04-23T16:05:27.871Z,30.72
2018-04-23T16:07:55.571Z,30.47
2018-04-23T16:10:23.151Z,29.59
2018-04-23T16:12:50.723Z,29.24
2018-04-23T16:15:19.271Z,28.93
2018-04-23T16:17:47.438Z,28.31
2018-04-23T16:20:16.259Z,27.76
2018-04-23T16:22:43.872Z,27.43
2018-04-23T16:25:11.503Z,27.13
2018-04-23T16:27:40.152Z,27.22
2018-04-23T16:30:07.769Z,27.50
2018-04-23T16:32:35.398Z,27.75
2018-04-23T16:35:02.963Z,27.61
2018-04-23T16:37:30.563Z,27.17
2018-04-23T16:39:58.764Z,26.69
2018-04-23T16:42:27.392Z,26.25
2018-04-23T16:44:55.171Z,25.87
2018-04-23T16:47:22.758Z,25.59
2018-04-23T16:49:50.564Z,25.48
2018-04-23T16:52:20.515Z,25.27
2018-04-23T16:54:48.099Z,24.94
2018-04-23T16:57:16.747Z,24.78
2018-04-23T16:59:45.772Z,24.57
2018-04-23T17:02:13.327Z,24.37
2018-04-23T17:04:41.269Z,24.18
2018-04-23T17:07:08.911Z,23.90
2018-04-23T17:09:36.581Z,23.65
2018-04-23T17:12:04.284Z,23.40
2018-04-23T17:14:31.944Z,23.12
2018-04-23T17:16:59.552Z,23.04
2018-04-23T17:19:27.166Z,22.88
2018-04-23T17:21:55.680Z,22.81
2018-04-23T17:24:23.287Z,22.70
2018-04-23T17:26:50.883Z,22.67
2018-04-23T17:29:18.496Z,22.59
2018-04-23T17:31:46.091Z,22.45
2018-04-23T17:34:13.651Z,22.45
2018-04-23T17:36:41.935Z,22.40
2018-04-23T17:39:09.644Z,22.35
2018-04-23T17:41:37.307Z,22.23
2018-04-23T17:44:04.927Z,22.14
2018-04-23T17:46:32.588Z,22.11
2018-04-23T17:49:00.209Z,22.03
2018-04-23T17:51:27.802Z,22.00
2018-04-23T17:53:55.403Z,21.91
2018-04-23T17:56:22.995Z,21.91
2018-04-23T17:58:50.679Z,21.93
2018-04-23T18:01:18.591Z,21.95
2018-04-23T18:03:46.205Z,21.89
2018-04-23T18:06:13.820Z,21.89
2018-04-23T18:08:43.303Z,21.74
2018-04-23T18:11:11.712Z,21.70
2018-04-23T18:13:39.315Z,21.61
2018-04-23T18:16:07.004Z,21.42
2018-04-23T18:18:34.659Z,21.21
2018-04-23T18:21:02.211Z,21.07
2018-04-23T18:23:30.775Z,20.91
2018-04-23T18:25:59.234Z,20.80
2018-04-23T18:28:26.799Z,20.72
2018-04-23T18:30:54.347Z,20.61
2018-04-23T18:33:23.836Z,20.50
2018-04-23T18:35:51.396Z,20.33
2018-04-23T18:38:19.694Z,20.21
2018-04-23T18:40:47.359Z,20.13
2018-04-23T18:43:15.641Z,20.09
2018-04-23T18:45:43.325Z,20.04
2018-04-23T18:48:10.967Z,20.04
2018-04-23T18:50:39.348Z,20.11
2018-04-23T18:53:07.052Z,20.16
2018-04-23T18:55:34.826Z,20.17
2018-04-23T18:58:03.052Z,19.98
2018-04-23T19:00:31.673Z,19.75
2018-04-23T19:02:59.963Z,19.48
2018-04-23T19:05:28.552Z,19.22
2018-04-23T19:07:56.165Z,19.16
2018-04-23T19:10:24.239Z,19.13
2018-04-23T19:12:51.927Z,19.12
2018-04-23T19:15:19.483Z,19.06
2018-04-23T19:17:47.035Z,19.18
2018-04-23T19:20:14.673Z,19.10
2018-04-23T19:22:42.473Z,19.14
2018-04-23T19:25:10.836Z,19.64
2018-04-23T19:27:38.455Z,20.11
2018-04-23T19:30:06.018Z,20.15
2018-04-23T19:32:34.190Z,19.95
2018-04-23T19:35:01.819Z,19.68
2018-04-23T19:37:30.211Z,19.52
2018-04-23T19:39:57.832Z,18.99
2018-04-23T19:42:26.272Z,18.47
2018-04-23T19:44:53.871Z,18.31
2018-04-23T19:47:21.423Z,18.29
2018-04-23T19:49:49.019Z,18.28
2018-04-23T19:52:16.630Z,18.22
2018-04-23T19:54:44.249Z,18.25
2018-04-23T19:57:13.758Z,18.30
2018-04-23T19:59:41.347Z,18.24
2018-04-23T20:02:08.911Z,18.17
2018-04-23T20:04:36.516Z,18.15
2018-04-23T20:07:04.659Z,17.95
2018-04-23T20:09:32.382Z,17.75
2018-04-23T20:11:59.987Z,17.60
2018-04-23T20:14:27.634Z,17.41
2018-04-23T20:16:55.621Z,17.21
2018-04-23T20:19:23.182Z,16.95
2018-04-23T20:21:50.804Z,16.95
2018-04-23T20:24:18.538Z,17.02
2018-04-23T20:26:46.539Z,17.02
2018-04-23T20:29:14.187Z,17.56
2018-04-23T20:31:41.892Z,18.68
2018-04-23T20:34:09.480Z,18.54
2018-04-23T20:36:37.431Z,18.37
2018-04-23T20:39:05.296Z,18.10
2018-04-23T20:41:32.900Z,17.97
2018-04-23T20:44:00.451Z,17.92
2018-04-23T20:46:28.136Z,17.67
2018-04-23T20:48:55.691Z,17.54
2018-04-23T20:51:23.276Z,17.35
2018-04-23T20:53:50.935Z,17.25
2018-04-23T20:56:18.559Z,17.15
2018-04-23T20:58:46.233Z,17.21
2018-04-23T21:01:13.828Z,17.66
2018-04-23T21:03:42.315Z,17.86
2018-04-23T21:06:09.979Z,17.74
2018-04-23T21:08:38.514Z,17.45
2018-04-23T21:11:06.208Z,17.13
2018-04-23T21:13:33.795Z,16.85
2018-04-23T21:16:01.399Z,16.67
2018-04-23T21:18:28.956Z,16.53
2018-04-23T21:20:56.525Z,16.56
2018-04-23T21:23:24.197Z,16.46
2018-04-23T21:25:51.825Z,16.28
2018-04-23T21:28:19.459Z,16.13
2018-04-23T21:30:47.019Z,16.02
2018-04-23T21:33:14.668Z,16.11
2018-04-23T21:35:42.222Z,16.22
2018-04-23T21:38:10.715Z,16.05
2018-04-23T21:40:38.310Z,16.10
2018-04-23T21:43:05.856Z,16.21
2018-04-23T21:45:33.462Z,16.18
2018-04-23T21:48:01.024Z,16.11
2018-04-23T21:50:28.582Z,16.12
2018-04-23T21:52:56.251Z,16.17
2018-04-23T21:55:23.807Z,16.14
2018-04-23T21:57:51.359Z,16.07
2018-04-23T22:00:18.957Z,15.99
2018-04-23T22:02:47.307Z,16.03
2018-04-23T22:05:14.935Z,15.96
2018-04-23T22:07:42.867Z,16.01
2018-04-23T22:10:11.209Z,15.78
2018-04-23T22:12:39.435Z,15.66
2018-04-23T22:15:07.177Z,15.79
2018-04-23T22:17:34.732Z,15.96
2018-04-23T22:20:02.275Z,16.17
2018-04-23T22:22:30.667Z,16.44
2018-04-23T22:24:58.218Z,16.24
2018-04-23T22:27:25.811Z,16.16
2018-04-23T22:29:54.194Z,16.13
2018-04-23T22:32:21.812Z,16.16
2018-04-23T22:34:49.850Z,16.03
2018-04-23T22:37:17.479Z,15.95
2018-04-23T22:39:45.471Z,15.83
2018-04-23T22:42:13.035Z,15.74
2018-04-23T22:44:40.623Z,15.82
2018-04-23T22:47:08.230Z,15.85
2018-04-23T22:49:35.783Z,15.86
2018-04-23T22:52:03.340Z,15.98
2018-04-23T22:54:30.947Z,15.94
2018-04-23T22:56:58.552Z,15.84
2018-04-23T22:59:26.251Z,15.90
2018-04-23T23:01:53.802Z,16.07
2018-04-23T23:04:21.347Z,16.20
2018-04-23T23:06:48.947Z,16.24
2018-04-23T23:09:16.576Z,16.02
2018-04-23T23:11:44.129Z,15.83
2018-04-23T23:14:11.715Z,15.69
2018-04-23T23:16:39.263Z,15.57
2018-04-23T23:19:06.865Z,15.71
2018-04-23T23:21:34.475Z,15.90
2018-04-23T23:24:02.132Z,15.77
2018-04-23T23:26:29.687Z,15.68
2018-04-23T23:28:57.294Z,15.83
2018-04-23T23:31:24.903Z,15.82
2018-04-23T23:33:52.496Z,15.76
2018-04-23T23:36:20.115Z,15.71
2018-04-23T23:38:47.707Z,15.79
2018-04-23T23:41:15.259Z,15.76
2018-04-23T23:43:42.850Z,15.59
2018-04-23T23:46:10.459Z,15.56
2018-04-23T23:48:38.082Z,15.42
2018-04-23T23:51:05.675Z,15.31
2018-04-23T23:53:33.319Z,15.23
2018-04-23T23:56:00.927Z,15.20
2018-04-23T23:58:28.485Z,15.05
